createdAt,value
2017-08-09T00:02:08.628Z,18.40
2017-08-09T00:04:36.135Z,18.40
2017-08-09T00:07:04.050Z,18.40
2017-08-09T00:09:31.567Z,18.40
2017-08-09T00:12:00.602Z,18.40
2017-08-09T00:14:28.502Z,18.40
2017-08-09T00:16:56.826Z,18.50
2017-08-09T00:19:24.340Z,18.40
2017-08-09T00:21:51.867Z,18.40
2017-08-09T00:24:19.372Z,18.40
2017-08-09T00:26:48.021Z,18.40
2017-08-09T00:29:15.551Z,18.40
2017-08-09T00:31:43.060Z,18.40
2017-08-09T00:34:10.978Z,18.40
2017-08-09T00:36:38.489Z,18.30
2017-08-09T00:39:06.024Z,18.30
2017-08-09T00:41:33.931Z,18.30
2017-08-09T00:44:01.450Z,18.30
2017-08-09T00:46:28.950Z,18.20
2017-08-09T00:48:56.466Z,18.20
2017-08-09T00:51:23.968Z,18.30
2017-08-09T00:53:51.507Z,18.20
2017-08-09T00:56:19.015Z,18.20
2017-08-09T00:58:46.544Z,18.20
2017-08-09T01:01:14.068Z,18.20
2017-08-09T01:03:41.563Z,18.10
2017-08-09T01:06:09.112Z,18.10
2017-08-09T01:08:36.607Z,18.10
2017-08-09T01:11:04.135Z,18.10
2017-08-09T01:13:32.406Z,18.10
2017-08-09T01:16:00.338Z,18.10
2017-08-09T01:18:27.843Z,18.20
2017-08-09T01:20:56.142Z,18.20
2017-08-09T01:23:23.640Z,18.20
2017-08-09T01:25:51.166Z,18.20
2017-08-09T01:28:18.688Z,18.10
2017-08-09T01:30:46.617Z,18.10
2017-08-09T01:33:14.114Z,18.10
2017-08-09T01:35:42.070Z,18.10
2017-08-09T01:38:09.576Z,18.00
2017-08-09T01:40:37.131Z,18.00
2017-08-09T01:43:04.663Z,17.90
2017-08-09T01:45:32.183Z,17.80
2017-08-09T01:47:59.712Z,17.80
2017-08-09T01:50:27.231Z,17.80
2017-08-09T01:52:55.167Z,17.80
2017-08-09T01:55:22.663Z,17.80
2017-08-09T01:57:50.187Z,17.80
2017-08-09T02:00:18.092Z,17.90
2017-08-09T02:02:45.613Z,17.90
2017-08-09T02:05:13.108Z,18.00
2017-08-09T02:07:41.036Z,18.10
2017-08-09T02:10:08.557Z,18.10
2017-08-09T02:12:36.092Z,18.10
2017-08-09T02:15:04.368Z,18.10
2017-08-09T02:17:31.882Z,18.10
2017-08-09T02:23:12.926Z,18.10
2017-08-09T02:25:40.419Z,18.10
2017-08-09T02:28:07.942Z,18.20
2017-08-09T02:30:35.452Z,18.20
2017-08-09T02:33:02.956Z,18.20
2017-08-09T02:35:30.479Z,18.10
2017-08-09T02:37:57.998Z,18.10
2017-08-09T02:40:25.909Z,18.00
2017-08-09T02:42:53.422Z,18.00
2017-08-09T02:45:20.956Z,17.90
2017-08-09T02:47:49.230Z,18.00
2017-08-09T02:50:17.531Z,18.10
2017-08-09T02:52:45.031Z,18.00
2017-08-09T02:55:12.558Z,17.90
2017-08-09T02:57:40.050Z,17.90
2017-08-09T03:00:07.571Z,17.90
2017-08-09T03:02:35.470Z,17.80
2017-08-09T03:05:02.980Z,17.80
2017-08-09T03:07:30.511Z,17.80
2017-08-09T03:09:58.015Z,17.90
2017-08-09T03:12:25.549Z,17.90
2017-08-09T03:14:53.051Z,17.90
2017-08-09T03:17:20.574Z,17.90
2017-08-09T03:19:48.854Z,18.00
2017-08-09T03:22:16.394Z,18.00
2017-08-09T03:24:44.687Z,18.10
2017-08-09T03:27:12.979Z,18.00
2017-08-09T03:29:41.256Z,18.00
2017-08-09T03:32:09.550Z,17.80
2017-08-09T03:34:37.852Z,17.80
2017-08-09T03:37:06.125Z,17.90
2017-08-09T03:39:33.666Z,17.90
2017-08-09T03:42:01.562Z,18.00
2017-08-09T03:44:30.595Z,18.00
2017-08-09T03:46:58.103Z,18.10
2017-08-09T03:49:26.035Z,18.10
2017-08-09T03:51:53.545Z,18.10
2017-08-09T03:54:21.069Z,18.00
2017-08-09T03:56:48.575Z,18.00
2017-08-09T03:59:16.099Z,18.00
2017-08-09T04:01:43.610Z,18.10
2017-08-09T04:04:11.534Z,18.10
2017-08-09T04:06:39.439Z,18.20
2017-08-09T04:09:06.955Z,18.10
2017-08-09T04:11:34.494Z,18.10
2017-08-09T04:14:02.006Z,18.10
2017-08-09T04:16:29.531Z,18.00
2017-08-09T04:18:57.058Z,17.80
2017-08-09T04:21:24.571Z,17.70
2017-08-09T04:23:52.464Z,17.60
2017-08-09T04:26:19.987Z,17.50
2017-08-09T04:28:47.483Z,17.40
2017-08-09T04:31:15.003Z,17.30
2017-08-09T04:33:42.495Z,17.10
2017-08-09T04:36:10.020Z,17.00
2017-08-09T04:41:06.403Z,17.00
2017-08-09T04:43:33.929Z,16.90
2017-08-09T04:46:01.831Z,16.90
2017-08-09T04:48:29.358Z,17.00
2017-08-09T04:50:56.855Z,17.00
2017-08-09T04:53:24.379Z,17.00
2017-08-09T04:55:51.898Z,16.90
2017-08-09T04:58:19.423Z,17.00
2017-08-09T05:00:46.920Z,17.10
2017-08-09T05:03:14.851Z,17.20
2017-08-09T05:05:42.371Z,17.30
2017-08-09T05:08:09.905Z,17.30
2017-08-09T05:10:37.427Z,17.30
2017-08-09T05:13:04.955Z,17.30
2017-08-09T05:15:33.243Z,17.40
2017-08-09T05:27:56.219Z,17.60
2017-08-09T05:30:23.743Z,17.60
2017-08-09T05:32:51.235Z,17.60
2017-08-09T05:35:18.762Z,17.70
2017-08-09T05:37:46.287Z,17.70
2017-08-09T05:40:14.591Z,17.80
2017-08-09T05:42:42.091Z,17.80
2017-08-09T05:45:09.607Z,17.90
2017-08-09T05:47:37.131Z,18.00
2017-08-09T05:50:04.622Z,18.10
2017-08-09T05:52:32.151Z,18.30
2017-08-09T05:55:00.427Z,18.40
2017-08-09T05:57:27.951Z,18.40
2017-08-09T05:59:55.442Z,18.30
2017-08-09T06:02:23.001Z,18.30
2017-08-09T06:04:51.355Z,18.30
2017-08-09T06:07:18.883Z,18.30
2017-08-09T06:09:46.411Z,18.40
2017-08-09T06:12:13.930Z,18.50
2017-08-09T06:14:41.458Z,18.50
2017-08-09T06:17:08.974Z,18.60
2017-08-09T06:19:36.907Z,18.80
2017-08-09T06:22:04.410Z,19.10
2017-08-09T06:24:32.733Z,19.30
2017-08-09T06:27:00.234Z,19.50
2017-08-09T06:29:28.147Z,19.80
2017-08-09T06:31:57.169Z,19.90
2017-08-09T06:34:24.684Z,20.00
2017-08-09T06:36:52.963Z,20.10
2017-08-09T06:39:21.614Z,20.20
2017-08-09T06:41:49.107Z,20.10
2017-08-09T06:44:16.604Z,20.00
2017-08-09T06:46:44.120Z,20.10
2017-08-09T06:49:11.623Z,20.30
2017-08-09T06:51:39.138Z,20.60
2017-08-09T06:54:07.414Z,20.80
2017-08-09T06:56:34.946Z,20.90
2017-08-09T06:59:02.455Z,21.90
2017-08-09T07:01:31.491Z,22.50
2017-08-09T07:03:58.995Z,22.60
2017-08-09T07:06:26.511Z,23.00
2017-08-09T07:08:54.786Z,23.70
2017-08-09T07:11:22.699Z,24.30
2017-08-09T07:13:50.215Z,24.70
2017-08-09T07:16:17.728Z,24.60
2017-08-09T07:18:45.267Z,24.80
2017-08-09T07:21:12.763Z,25.00
2017-08-09T07:23:40.280Z,24.60
2017-08-09T07:26:07.783Z,24.50
2017-08-09T07:28:36.802Z,24.40
2017-08-09T07:31:04.331Z,24.10
2017-08-09T07:33:32.247Z,23.80
2017-08-09T07:35:59.751Z,24.00
2017-08-09T07:38:27.276Z,24.10
2017-08-09T07:40:54.775Z,24.20
2017-08-09T07:43:23.439Z,24.10
2017-08-09T07:45:51.352Z,23.80
2017-08-09T07:48:19.627Z,23.80
2017-08-09T07:50:47.924Z,23.80
2017-08-09T07:53:16.187Z,23.60
2017-08-09T07:55:44.103Z,23.40
2017-08-09T07:58:12.003Z,23.60
2017-08-09T08:00:39.536Z,23.60
2017-08-09T08:03:07.033Z,23.50
2017-08-09T08:05:34.961Z,23.70
2017-08-09T08:08:02.462Z,23.50
2017-08-09T08:10:31.577Z,23.40
2017-08-09T08:15:27.969Z,23.50
2017-08-09T08:17:55.483Z,23.40
2017-08-09T08:20:22.977Z,23.20
2017-08-09T08:22:50.499Z,23.10
2017-08-09T08:25:17.999Z,23.10
2017-08-09T08:30:14.387Z,23.70
2017-08-09T08:32:42.084Z,24.30
2017-08-09T08:35:09.600Z,24.50
2017-08-09T08:37:37.127Z,24.30
2017-08-09T08:40:04.641Z,23.90
2017-08-09T08:42:32.956Z,23.70
2017-08-09T08:45:00.480Z,23.70
2017-08-09T08:47:27.980Z,23.80
2017-08-09T08:49:55.495Z,24.20
2017-08-09T08:52:22.995Z,25.00
2017-08-09T08:54:50.919Z,25.20
2017-08-09T08:57:18.421Z,24.90
2017-08-09T08:59:45.942Z,24.80
2017-08-09T09:02:13.439Z,24.60
2017-08-09T09:04:40.984Z,24.40
2017-08-09T09:07:08.491Z,24.40
2017-08-09T09:09:36.418Z,24.30
2017-08-09T09:12:03.911Z,23.90
2017-08-09T09:14:31.429Z,23.70
2017-08-09T09:16:59.725Z,23.60
2017-08-09T09:19:27.227Z,23.80
2017-08-09T09:21:55.895Z,24.10
2017-08-09T09:24:23.791Z,24.60
2017-08-09T09:26:51.715Z,24.70
2017-08-09T09:29:19.207Z,24.60
2017-08-09T09:31:46.743Z,24.40
2017-08-09T09:34:14.259Z,24.20
2017-08-09T09:36:41.783Z,24.50
2017-08-09T09:39:09.286Z,24.50
2017-08-09T09:44:05.643Z,24.30
2017-08-09T09:46:33.563Z,24.40
2017-08-09T09:49:01.063Z,24.30
2017-08-09T09:51:28.571Z,24.30
2017-08-09T09:53:56.099Z,24.60
2017-08-09T09:56:23.999Z,24.90
2017-08-09T09:58:51.565Z,25.00
2017-08-09T10:01:19.837Z,24.70
2017-08-09T10:03:47.364Z,24.40
2017-08-09T10:06:16.367Z,24.10
2017-08-09T10:08:44.285Z,23.90
2017-08-09T10:11:11.791Z,23.80
2017-08-09T10:13:39.323Z,23.90
2017-08-09T10:16:07.584Z,24.60
2017-08-09T10:18:35.493Z,24.90
2017-08-09T10:21:03.005Z,24.50
2017-08-09T10:23:31.295Z,24.30
2017-08-09T10:25:59.190Z,24.20
2017-08-09T10:28:27.473Z,24.00
2017-08-09T10:30:55.398Z,23.80
2017-08-09T10:33:22.895Z,24.00
2017-08-09T10:35:50.414Z,24.40
2017-08-09T10:38:17.915Z,24.50
2017-08-09T10:40:45.439Z,24.60
2017-08-09T10:43:12.935Z,24.40
2017-08-09T10:45:40.460Z,24.40
2017-08-09T10:48:08.359Z,24.30
2017-08-09T10:50:35.887Z,23.90
2017-08-09T10:53:03.405Z,23.30
2017-08-09T10:55:30.959Z,23.10
2017-08-09T10:57:58.459Z,23.10
2017-08-09T11:00:25.976Z,23.20
2017-08-09T11:02:53.573Z,23.20
2017-08-09T11:05:21.852Z,23.40
2017-08-09T11:07:49.787Z,23.40
2017-08-09T11:10:17.688Z,23.20
2017-08-09T11:12:45.214Z,23.10
2017-08-09T11:15:12.710Z,23.00
2017-08-09T11:17:40.231Z,23.20
2017-08-09T11:20:07.726Z,23.40
2017-08-09T11:22:35.248Z,23.60
2017-08-09T11:25:03.519Z,23.50
2017-08-09T11:27:31.242Z,23.40
2017-08-09T11:29:58.747Z,23.40
2017-08-09T11:32:27.027Z,23.50
2017-08-09T11:34:54.531Z,23.60
2017-08-09T11:37:22.058Z,23.60
2017-08-09T11:39:50.348Z,23.60
2017-08-09T11:42:18.622Z,23.80
2017-08-09T11:44:46.925Z,23.70
2017-08-09T11:47:14.427Z,23.70
2017-08-09T11:49:41.964Z,23.40
2017-08-09T11:52:09.479Z,23.20
2017-08-09T11:54:37.003Z,23.20
2017-08-09T11:57:05.278Z,23.20
2017-08-09T11:59:32.804Z,23.10
2017-08-09T12:02:00.309Z,22.90
2017-08-09T12:04:27.839Z,23.00
2017-08-09T12:06:55.346Z,23.00
2017-08-09T12:09:22.868Z,23.00
2017-08-09T12:11:50.362Z,22.90
2017-08-09T12:14:18.684Z,22.90
2017-08-09T12:16:46.198Z,22.90
2017-08-09T12:19:13.708Z,23.00
2017-08-09T12:21:41.248Z,23.10
2017-08-09T12:24:08.739Z,23.00
2017-08-09T12:26:36.268Z,23.00
2017-08-09T12:29:04.918Z,23.00
2017-08-09T12:34:01.292Z,22.70
2017-08-09T12:36:29.214Z,22.70
2017-08-09T12:38:56.715Z,22.70
2017-08-09T12:41:25.012Z,22.50
2017-08-09T12:43:52.527Z,22.60
2017-08-09T12:46:20.847Z,22.80
2017-08-09T12:48:48.364Z,23.00
2017-08-09T12:51:15.868Z,22.80
2017-08-09T12:53:44.151Z,22.70
2017-08-09T12:56:11.647Z,22.80
2017-08-09T12:58:39.159Z,22.90
2017-08-09T13:01:06.674Z,23.10
2017-08-09T13:03:34.591Z,23.10
2017-08-09T13:06:02.105Z,23.10
2017-08-09T13:08:30.762Z,23.10
2017-08-09T13:10:59.038Z,23.20
2017-08-09T13:13:27.719Z,23.20
2017-08-09T13:15:55.286Z,23.10
2017-08-09T13:18:22.814Z,23.10
2017-08-09T13:20:50.327Z,23.00
2017-08-09T13:23:17.830Z,23.00
2017-08-09T13:25:46.106Z,23.10
2017-08-09T13:28:13.607Z,23.20
2017-08-09T13:30:41.127Z,23.10
2017-08-09T13:33:09.402Z,23.10
2017-08-09T13:38:05.778Z,23.10
2017-08-09T13:40:33.316Z,22.90
2017-08-09T13:43:00.835Z,23.00
2017-08-09T13:45:28.705Z,23.00
2017-08-09T13:47:56.318Z,23.00
2017-08-09T13:50:23.853Z,23.00
2017-08-09T13:52:52.131Z,22.90
2017-08-09T13:55:19.651Z,22.90
2017-08-09T13:57:47.174Z,22.90
2017-08-09T14:00:14.674Z,22.80
2017-08-09T14:02:42.990Z,22.80
2017-08-09T14:05:10.501Z,22.90
2017-08-09T14:07:38.030Z,22.90
2017-08-09T14:10:05.526Z,23.00
2017-08-09T14:12:33.807Z,23.00
2017-08-09T14:15:01.703Z,23.00
2017-08-09T14:17:29.642Z,22.90
2017-08-09T14:22:26.020Z,22.90
2017-08-09T14:24:54.326Z,22.90
2017-08-09T14:27:21.827Z,22.90
2017-08-09T14:29:49.347Z,23.00
2017-08-09T14:32:17.623Z,23.00
2017-08-09T14:34:45.139Z,23.10
2017-08-09T14:37:12.638Z,23.10
2017-08-09T14:47:07.175Z,23.40
2017-08-09T14:49:35.831Z,23.40
2017-08-09T14:52:04.098Z,23.40
2017-08-09T14:54:32.003Z,23.40
2017-08-09T14:56:59.504Z,23.30
2017-08-09T14:59:26.994Z,23.20
2017-08-09T15:01:54.631Z,23.20
2017-08-09T15:04:22.143Z,23.20
2017-08-09T15:06:50.074Z,23.20
2017-08-09T15:09:18.347Z,23.20
2017-08-09T15:11:47.379Z,23.20
2017-08-09T15:14:15.651Z,23.30
2017-08-09T15:21:41.337Z,23.30
2017-08-09T15:24:09.963Z,23.40
2017-08-09T15:26:37.499Z,23.40
2017-08-09T15:29:05.007Z,23.30
2017-08-09T15:31:32.529Z,23.30
2017-08-09T15:34:00.057Z,23.30
2017-08-09T15:36:27.555Z,23.20
2017-08-09T15:38:55.842Z,23.20
2017-08-09T15:41:23.391Z,23.10
2017-08-09T15:43:51.024Z,23.20
2017-08-09T15:46:19.312Z,23.20
2017-08-09T15:48:46.846Z,23.30
2017-08-09T15:51:14.357Z,23.40
2017-08-09T15:53:41.883Z,23.50
2017-08-09T15:56:09.387Z,23.40
2017-08-09T15:58:36.900Z,23.50
2017-08-09T16:01:04.403Z,23.50
2017-08-09T16:06:01.554Z,23.50
2017-08-09T16:08:29.459Z,23.50
2017-08-09T16:10:56.984Z,23.50
2017-08-09T16:13:24.887Z,23.50
2017-08-09T16:15:52.433Z,23.40
2017-08-09T16:18:19.934Z,23.40
2017-08-09T16:20:48.781Z,23.40
2017-08-09T16:23:16.382Z,23.40
2017-08-09T16:28:12.764Z,23.30
2017-08-09T16:30:40.324Z,23.20
2017-08-09T16:33:07.846Z,23.20
2017-08-09T16:35:35.379Z,23.20
2017-08-09T16:40:31.755Z,23.20
2017-08-09T16:43:00.415Z,23.20
2017-08-09T16:45:27.935Z,23.20
2017-08-09T16:47:55.458Z,23.20
2017-08-09T16:50:23.361Z,23.10
2017-08-09T16:52:50.882Z,23.10
2017-08-09T16:55:18.378Z,23.00
2017-08-09T16:57:45.899Z,22.90
2017-08-09T17:00:13.392Z,22.80
2017-08-09T17:02:41.304Z,22.80
2017-08-09T17:05:08.828Z,22.80
2017-08-09T17:07:36.355Z,22.80
2017-08-09T17:10:04.267Z,22.70
2017-08-09T17:12:31.815Z,22.80
2017-08-09T17:14:59.344Z,22.70
2017-08-09T17:17:26.855Z,22.70
2017-08-09T17:19:54.392Z,22.70
2017-08-09T17:22:21.906Z,22.80
2017-08-09T17:24:49.428Z,22.80
2017-08-09T17:27:16.918Z,22.80
2017-08-09T17:29:44.450Z,22.80
2017-08-09T17:32:11.947Z,22.80
2017-08-09T17:34:39.471Z,22.80
2017-08-09T17:37:06.995Z,22.80
2017-08-09T17:39:34.520Z,22.70
2017-08-09T17:42:02.791Z,22.70
2017-08-09T17:44:30.291Z,22.70
2017-08-09T17:46:58.963Z,22.70
2017-08-09T17:49:26.473Z,22.60
2017-08-09T17:51:53.995Z,22.60
2017-08-09T17:54:21.510Z,22.60
2017-08-09T17:59:18.687Z,22.60
2017-08-09T18:01:46.236Z,22.60
2017-08-09T18:04:13.735Z,22.50
2017-08-09T18:06:41.663Z,22.60
2017-08-09T18:09:09.158Z,22.60
2017-08-09T18:11:36.687Z,22.60
2017-08-09T18:14:04.987Z,22.60
2017-08-09T18:16:34.048Z,22.60
2017-08-09T18:19:01.584Z,22.50
2017-08-09T18:21:30.238Z,22.50
2017-08-09T18:23:57.757Z,22.50
2017-08-09T18:26:25.352Z,22.50
2017-08-09T18:28:52.871Z,22.50
2017-08-09T18:31:20.428Z,22.60
2017-08-09T18:33:47.958Z,22.60
2017-08-09T18:36:15.483Z,22.60
2017-08-09T18:38:43.046Z,22.60
2017-08-09T18:41:11.319Z,22.60
2017-08-09T18:43:39.969Z,22.60
2017-08-09T18:46:07.501Z,22.60
2017-08-09T18:48:34.999Z,22.60
2017-08-09T18:51:03.274Z,22.60
2017-08-09T18:53:30.763Z,22.60
2017-08-09T18:55:58.277Z,22.60
2017-08-09T18:58:25.786Z,22.60
2017-08-09T19:00:53.325Z,22.60
2017-08-09T19:03:21.599Z,22.60
2017-08-09T19:05:49.130Z,22.60
2017-08-09T19:08:16.634Z,22.60
2017-08-09T19:10:44.160Z,22.50
2017-08-09T19:13:11.666Z,22.40
2017-08-09T19:15:39.647Z,22.40
2017-08-09T19:18:07.923Z,22.40
2017-08-09T19:20:35.436Z,22.40
2017-08-09T19:23:02.969Z,22.30
2017-08-09T19:25:31.599Z,20.90
2017-08-09T19:27:59.112Z,22.30
2017-08-09T19:30:26.611Z,22.30
2017-08-09T19:32:54.127Z,22.30
2017-08-09T19:35:22.031Z,22.30
2017-08-09T19:37:49.567Z,22.30
2017-08-09T19:40:17.075Z,22.30
2017-08-09T19:42:44.593Z,22.30
2017-08-09T19:45:12.134Z,22.30
2017-08-09T19:47:39.735Z,22.30
2017-08-09T19:50:08.022Z,22.40
2017-08-09T19:52:36.315Z,22.30
2017-08-09T19:55:03.848Z,22.30
2017-08-09T19:57:31.759Z,22.30
2017-08-09T19:59:59.285Z,22.20
2017-08-09T20:02:27.571Z,22.20
2017-08-09T20:04:55.103Z,22.20
2017-08-09T20:07:22.611Z,22.20
2017-08-09T20:09:50.149Z,22.10
2017-08-09T20:12:17.666Z,22.10
2017-08-09T20:14:45.165Z,22.10
2017-08-09T20:17:12.698Z,22.10
2017-08-09T20:19:40.599Z,22.00
2017-08-09T20:22:08.118Z,22.00
2017-08-09T20:24:37.136Z,22.00
2017-08-09T20:27:04.661Z,22.00
2017-08-09T20:29:33.687Z,22.00
2017-08-09T20:32:01.209Z,22.10
2017-08-09T20:34:29.488Z,22.10
2017-08-09T20:36:57.010Z,22.00
2017-08-09T20:39:24.505Z,21.90
2017-08-09T20:41:52.799Z,21.90
2017-08-09T20:44:20.308Z,21.90
2017-08-09T20:46:48.987Z,21.80
2017-08-09T20:49:17.267Z,21.80
2017-08-09T20:51:44.763Z,21.80
2017-08-09T20:54:12.278Z,21.80
2017-08-09T20:56:39.779Z,21.80
2017-08-09T20:59:07.661Z,21.70
2017-08-09T21:01:35.167Z,21.70
2017-08-09T21:04:03.823Z,21.70
2017-08-09T21:09:00.241Z,21.70
2017-08-09T21:11:27.759Z,21.60
2017-08-09T21:13:55.291Z,21.60
2017-08-09T21:16:23.184Z,21.60
2017-08-09T21:18:50.687Z,21.60
2017-08-09T21:21:18.198Z,21.50
2017-08-09T21:23:45.703Z,21.50
2017-08-09T21:26:13.219Z,21.50
2017-08-09T21:28:41.116Z,21.50
2017-08-09T21:31:08.639Z,21.40
2017-08-09T21:33:36.135Z,21.40
2017-08-09T21:36:04.787Z,21.30
2017-08-09T21:38:32.282Z,21.30
2017-08-09T21:41:00.594Z,21.30
2017-08-09T21:43:28.109Z,21.20
2017-08-09T21:45:55.606Z,21.20
2017-08-09T21:48:23.534Z,21.20
2017-08-09T21:50:51.819Z,21.20
2017-08-09T21:53:19.338Z,21.20
2017-08-09T21:55:46.839Z,21.10
2017-08-09T21:58:15.114Z,21.10
2017-08-09T22:00:43.380Z,21.00
2017-08-09T22:03:10.911Z,21.00
2017-08-09T22:05:39.539Z,21.00
2017-08-09T22:08:07.158Z,20.90
2017-08-09T22:10:35.803Z,20.80
2017-08-09T22:13:03.296Z,20.90
2017-08-09T22:15:30.831Z,20.90
2017-08-09T22:17:58.331Z,20.90
2017-08-09T22:20:25.846Z,20.90
2017-08-09T22:22:53.734Z,20.90
2017-08-09T22:25:21.263Z,20.80
2017-08-09T22:27:48.755Z,20.80
2017-08-09T22:30:16.278Z,20.80
2017-08-09T22:32:43.771Z,20.70
2017-08-09T22:35:11.302Z,20.60
2017-08-09T22:37:39.570Z,20.60
2017-08-09T22:40:07.827Z,20.50
2017-08-09T22:42:35.750Z,20.50
2017-08-09T22:45:03.250Z,20.50
2017-08-09T22:47:31.527Z,20.50
2017-08-09T22:49:59.023Z,20.40
2017-08-09T22:52:26.550Z,20.40
2017-08-09T22:54:54.826Z,20.40
2017-08-09T22:57:23.119Z,20.30
2017-08-09T22:59:50.615Z,20.30
2017-08-09T23:02:18.147Z,20.30
2017-08-09T23:04:45.672Z,20.30
2017-08-09T23:07:13.214Z,20.20
2017-08-09T23:09:41.131Z,20.20
2017-08-09T23:12:08.650Z,20.20
2017-08-09T23:14:36.934Z,20.10
2017-08-09T23:17:05.588Z,20.00
2017-08-09T23:19:33.950Z,20.00
2017-08-09T23:22:01.465Z,20.00
2017-08-09T23:24:29.007Z,19.90
2017-08-09T23:26:56.526Z,19.90
2017-08-09T23:31:52.927Z,19.80
2017-08-09T23:34:20.474Z,19.70
2017-08-09T23:36:49.122Z,19.80
2017-08-09T23:41:46.636Z,19.80
2017-08-09T23:44:14.135Z,19.70
2017-08-09T23:46:43.355Z,19.60
2017-08-09T23:49:10.859Z,19.60
2017-08-09T23:51:38.378Z,19.60
2017-08-09T23:54:05.879Z,19.60
2017-08-09T23:56:34.168Z,19.60
2017-08-09T23:59:01.670Z,19.60
